Time;durP1;ratioP1;P1;durP2;ratioP2;P2;SDS_P1;SDS_P2;PMS_P1;PMS_P2;Temp;Humidity;BMP_temperature;BMP_pressure;BME280_temperature;BME280_humidity;BME280_pressure;Samples;Min_cycle;Max_cycle;Signal;HPM_P1;HPM_P2
2023/05/23 00:00:27;;;;;;;;;;;;;;;14.70;100.00;101773.03;5024433;28;19940;-82
2023/05/23 00:02:53;;;;;;;;;;;;;;;14.82;100.00;101790.97;5034771;28;19924;-81
2023/05/23 00:05:18;;;;;;;;;;;;;;;14.85;100.00;101787.16;5027956;28;19917;-81
2023/05/23 00:07:43;;;;;;;;;;;;;;;14.92;100.00;101776.69;5029065;28;19928;-82
2023/05/23 00:10:09;;;;;;;;;;;;;;;14.89;100.00;101779.63;5023352;28;19923;-81
2023/05/23 00:12:36;;;;;;;;;;;;;;;14.90;100.00;101784.06;5022712;28;19921;-82
2023/05/23 00:15:01;;;;;;;;;;;;;;;14.91;100.00;101785.78;5027007;28;20283;-82
2023/05/23 00:17:27;;;;;;;;;;;;;;;14.83;100.00;101786.41;5024968;28;19929;-82
2023/05/23 00:19:52;;;;;;;;;;;;;;;14.88;100.00;101784.19;5030364;28;20295;-82
2023/05/23 00:22:17;;;;;;;;;;;;;;;14.73;100.00;101786.28;5042097;28;19962;-83
2023/05/23 00:24:42;;;;;;;;;;;;;;;14.75;100.00;101792.44;5036171;28;20804;-81
2023/05/23 00:27:08;;;;;;;;;;;;;;;14.79;100.00;101795.75;5025386;28;19917;-82
2023/05/23 00:29:33;;;;;;;;;;;;;;;14.82;100.00;101796.38;5027538;28;19927;-82
2023/05/23 00:31:58;;;;;;;;;;;;;;;14.82;100.00;101799.09;5033822;28;19945;-82
2023/05/23 00:34:23;;;;;;;;;;;;;;;14.82;100.00;101801.78;5049072;28;20118;-82
2023/05/23 00:36:49;;;;;;;;;;;;;;;14.85;100.00;101806.91;5038561;28;19931;-81
2023/05/23 00:39:18;;;;;;;;;;;;;;;14.81;100.00;101804.59;5045802;28;19923;-82
2023/05/23 00:41:44;;;;;;;;;;;;;;;14.79;100.00;101809.25;5033919;28;19928;-82
2023/05/23 00:44:09;;;;;;;;;;;;;;;14.75;100.00;101816.78;5023436;28;19921;-82
2023/05/23 00:46:35;;;;;;;;;;;;;;;14.75;100.00;101813.19;5037289;28;19974;-81
2023/05/23 00:49:00;;;;;;;;;;;;;;;14.68;100.00;101816.41;5028701;28;20347;-82
2023/05/23 00:51:25;;;;;;;;;;;;;;;14.64;100.00;101812.19;5044090;28;20043;-82
2023/05/23 00:53:51;;;;;;;;;;;;;;;14.63;100.00;101810.47;5026939;28;20007;-83
2023/05/23 00:56:16;;;;;;;;;;;;;;;14.58;100.00;101807.28;5042372;28;19925;-82
2023/05/23 00:58:41;;;;;;;;;;;;;;;14.56;100.00;101806.53;5023671;28;19928;-82
2023/05/23 01:01:06;;;;;;;;;;;;;;;14.65;100.00;101803.09;5059559;28;20415;-83
2023/05/23 01:03:32;;;;;;;;;;;;;;;14.50;100.00;101805.19;5026687;28;20444;-82
2023/05/23 01:05:57;;;;;;;;;;;;;;;14.53;100.00;101810.34;5024089;28;19916;-82
2023/05/23 01:08:22;;;;;;;;;;;;;;;14.61;100.00;101812.44;5020183;28;19921;-82
2023/05/23 01:10:48;;;;;;;;;;;;;;;14.53;100.00;101817.56;5043774;28;19924;-83
2023/05/23 01:13:19;;;;;;;;;;;;;;;14.47;100.00;101815.34;5036613;28;19931;-82
2023/05/23 01:16:03;;;;;;;;;;;;;;;14.44;100.00;101816.47;5025644;28;20020;-82
2023/05/23 01:18:37;;;;;;;;;;;;;;;14.33;100.00;101825.41;5037991;28;20666;-83
2023/05/23 01:21:06;;;;;;;;;;;;;;;14.39;100.00;101827.66;5021160;28;19931;-83
2023/05/23 01:23:31;;;;;;;;;;;;;;;14.45;100.00;101823.59;5035996;28;20388;-82
2023/05/23 01:26:02;;;;;;;;;;;;;;;14.48;100.00;101823.34;5035189;28;19921;-82
2023/05/23 01:28:30;;;;;;;;;;;;;;;14.43;100.00;101830.13;5038457;28;19929;-83
2023/05/23 01:30:56;;;;;;;;;;;;;;;14.48;100.00;101831.47;5037447;28;19948;-83
2023/05/23 01:33:21;;;;;;;;;;;;;;;14.45;100.00;101833.53;5035004;28;19929;-83
2023/05/23 01:35:47;;;;;;;;;;;;;;;14.34;100.00;101835.25;5022610;28;19917;-83
2023/05/23 01:38:12;;;;;;;;;;;;;;;14.13;100.00;101839.63;5055069;28;19931;-83
2023/05/23 01:40:37;;;;;;;;;;;;;;;14.22;100.00;101844.28;5054606;28;19917;-82
2023/05/23 01:43:02;;;;;;;;;;;;;;;14.20;100.00;101840.84;5033947;28;20330;-83
2023/05/23 01:45:28;;;;;;;;;;;;;;;14.10;100.00;101843.41;5021773;28;19917;-83
2023/05/23 01:47:53;;;;;;;;;;;;;;;14.15;100.00;101840.38;5037860;28;19943;-82
2023/05/23 01:50:18;;;;;;;;;;;;;;;14.14;100.00;101849.44;5029339;28;19958;-83
2023/05/23 01:52:43;;;;;;;;;;;;;;;14.10;100.00;101851.50;5026508;28;20576;-82
2023/05/23 01:55:10;;;;;;;;;;;;;;;14.05;100.00;101857.28;5035585;28;19920;-82
2023/05/23 01:57:36;;;;;;;;;;;;;;;14.05;100.00;101854.56;5041353;28;19924;-81
2023/05/23 02:00:04;;;;;;;;;;;;;;;13.97;100.00;101862.38;5054475;28;20406;-82
2023/05/23 02:02:31;;;;;;;;;;;;;;;13.93;100.00;101864.47;5033118;28;19983;-82
2023/05/23 02:04:57;;;;;;;;;;;;;;;13.88;100.00;101860.41;5036734;28;19939;-82
2023/05/23 02:07:22;;;;;;;;;;;;;;;13.74;100.00;101864.16;5039743;28;20371;-82
2023/05/23 02:09:47;;;;;;;;;;;;;;;13.71;100.00;101859.81;5042841;28;19917;-83
2023/05/23 02:12:13;;;;;;;;;;;;;;;13.68;100.00;101860.03;5038422;28;19923;-83
2023/05/23 02:14:38;;;;;;;;;;;;;;;13.68;100.00;101862.75;5019395;28;19921;-82
2023/05/23 02:17:03;;;;;;;;;;;;;;;13.71;100.00;101869.75;5035125;28;19975;-82
2023/05/23 02:19:29;;;;;;;;;;;;;;;13.59;100.00;101866.16;5039979;28;19977;-83
2023/05/23 02:21:54;;;;;;;;;;;;;;;13.61;100.00;101864.19;5030936;28;19920;-83
2023/05/23 02:24:19;;;;;;;;;;;;;;;13.50;100.00;101862.31;5021113;28;19921;-82
2023/05/23 02:26:44;;;;;;;;;;;;;;;13.49;100.00;101863.28;5026115;28;19921;-83
2023/05/23 02:29:10;;;;;;;;;;;;;;;13.49;100.00;101860.56;5035232;28;19992;-83
2023/05/23 02:31:35;;;;;;;;;;;;;;;13.47;100.00;101870.63;5026884;28;19970;-83
2023/05/23 02:34:00;;;;;;;;;;;;;;;13.42;100.00;101868.25;5031839;28;19953;-82
2023/05/23 02:36:25;;;;;;;;;;;;;;;13.39;100.00;101876.53;5026080;28;20064;-83
2023/05/23 02:38:51;;;;;;;;;;;;;;;13.41;100.00;101880.00;5041426;28;19921;-83
2023/05/23 02:41:16;;;;;;;;;;;;;;;13.39;100.00;101870.28;5038122;28;19944;-82
2023/05/23 02:43:41;;;;;;;;;;;;;;;13.30;100.00;101875.38;5057950;28;21072;-83
2023/05/23 02:46:06;;;;;;;;;;;;;;;13.42;100.00;101878.19;5036099;28;20383;-82
2023/05/23 02:48:32;;;;;;;;;;;;;;;13.43;100.00;101879.91;5041373;28;19928;-82
2023/05/23 02:50:57;;;;;;;;;;;;;;;13.33;100.00;101879.69;5040113;28;20374;-82
2023/05/23 02:53:22;;;;;;;;;;;;;;;13.44;100.00;101878.94;5041200;28;19978;-82
2023/05/23 02:55:47;;;;;;;;;;;;;;;13.42;100.00;101884.44;5041670;28;19995;-82
2023/05/23 02:58:13;;;;;;;;;;;;;;;13.45;100.00;101878.81;5023236;28;19929;-82
2023/05/23 03:00:39;;;;;;;;;;;;;;;13.48;100.00;101875.03;5029732;28;19968;-82
2023/05/23 03:03:04;;;;;;;;;;;;;;;13.46;100.00;101879.69;5038207;28;20327;-82
2023/05/23 03:05:29;;;;;;;;;;;;;;;13.46;100.00;101880.53;5044051;28;19920;-81
2023/05/23 03:07:54;;;;;;;;;;;;;;;13.49;100.00;101874.91;5044702;28;19925;-82
2023/05/23 03:10:20;;;;;;;;;;;;;;;13.45;100.00;101872.56;5025359;28;20016;-82
2023/05/23 03:12:45;;;;;;;;;;;;;;;13.45;100.00;101880.66;5032727;28;19928;-82
2023/05/23 03:15:11;;;;;;;;;;;;;;;13.45;100.00;101886.91;5038192;28;19920;-82
2023/05/23 03:17:36;;;;;;;;;;;;;;;13.45;100.00;101886.91;5042461;28;19924;-81
2023/05/23 03:20:03;;;;;;;;;;;;;;;13.47;100.00;101881.41;5041576;28;20050;-82
2023/05/23 03:22:28;;;;;;;;;;;;;;;13.41;100.00;101881.84;5043434;28;19921;-82
2023/05/23 03:24:54;;;;;;;;;;;;;;;13.44;100.00;101895.97;5044779;28;19921;-82
2023/05/23 03:27:19;;;;;;;;;;;;;;;13.56;100.00;101893.34;5047667;28;19912;-82
2023/05/23 03:29:45;;;;;;;;;;;;;;;13.53;100.00;101893.56;5057047;28;19968;-83
2023/05/23 03:32:10;;;;;;;;;;;;;;;13.56;100.00;101896.06;5038618;28;19999;-82
2023/05/23 03:34:37;;;;;;;;;;;;;;;13.61;100.00;101897.44;5040203;28;19967;-82
2023/05/23 03:37:03;;;;;;;;;;;;;;;13.49;100.00;101901.91;5039045;28;20027;-82
2023/05/23 03:39:28;;;;;;;;;;;;;;;13.51;100.00;101893.66;5043617;28;20317;-82
2023/05/23 03:41:53;;;;;;;;;;;;;;;13.49;100.00;101903.75;5042287;28;20364;-82
2023/05/23 03:44:18;;;;;;;;;;;;;;;13.42;100.00;101899.75;5040684;28;19921;-82
2023/05/23 03:46:44;;;;;;;;;;;;;;;13.50;100.00;101903.63;5037814;28;19927;-82
2023/05/23 03:49:09;;;;;;;;;;;;;;;13.48;100.00;101904.72;5040969;28;20556;-82
2023/05/23 03:51:34;;;;;;;;;;;;;;;13.53;100.00;101904.38;5041156;28;20313;-82
2023/05/23 03:53:59;;;;;;;;;;;;;;;13.63;100.00;101902.72;5038187;28;20282;-82
2023/05/23 03:56:25;;;;;;;;;;;;;;;13.64;100.00;101902.59;5041142;28;19979;-81
2023/05/23 03:58:50;;;;;;;;;;;;;;;13.65;100.00;101908.84;5041449;28;19916;-82
2023/05/23 04:01:15;;;;;;;;;;;;;;;13.69;100.00;101909.50;5042124;28;19917;-81
2023/05/23 04:03:41;;;;;;;;;;;;;;;13.70;100.00;101908.53;5040357;28;20371;-82
2023/05/23 04:06:06;;;;;;;;;;;;;;;13.67;100.00;101908.75;5041097;28;19974;-82
2023/05/23 04:08:33;;;;;;;;;;;;;;;13.68;100.00;101910.47;5042583;28;19921;-82
2023/05/23 04:10:59;;;;;;;;;;;;;;;13.65;100.00;101907.03;5042739;28;19917;-82
2023/05/23 04:13:25;;;;;;;;;;;;;;;13.71;100.00;101918.34;5041426;28;19932;-82
2023/05/23 04:15:51;;;;;;;;;;;;;;;13.79;100.00;101907.81;5044239;28;20283;-82
2023/05/23 04:18:16;;;;;;;;;;;;;;;13.81;100.00;101919.38;5041214;28;19963;-82
2023/05/23 04:20:41;;;;;;;;;;;;;;;13.88;100.00;101917.09;5042768;28;20011;-82
2023/05/23 04:23:07;;;;;;;;;;;;;;;13.84;100.00;101916.44;5042346;28;20363;-82
2023/05/23 04:25:33;;;;;;;;;;;;;;;13.89;100.00;101925.06;5041920;28;19959;-81
2023/05/23 04:27:58;;;;;;;;;;;;;;;13.88;100.00;101928.72;5025629;28;19971;-82
2023/05/23 04:30:23;;;;;;;;;;;;;;;13.88;100.00;101934.13;5028997;28;19932;-81
2023/05/23 04:32:49;;;;;;;;;;;;;;;13.81;100.00;101932.84;5039555;28;19932;-82
2023/05/23 04:35:14;;;;;;;;;;;;;;;13.88;100.00;101933.28;5041136;28;19952;-82
2023/05/23 04:37:40;;;;;;;;;;;;;;;13.79;100.00;101933.00;5025940;28;19925;-81
2023/05/23 04:40:06;;;;;;;;;;;;;;;13.80;100.00;101933.84;5042018;28;20004;-81
2023/05/23 04:42:32;;;;;;;;;;;;;;;13.73;100.00;101933.44;5033126;28;19921;-83
2023/05/23 04:44:57;;;;;;;;;;;;;;;13.78;100.00;101942.06;5038450;28;19924;-81
2023/05/23 04:47:23;;;;;;;;;;;;;;;13.72;100.00;101942.50;5037272;28;20091;-81
2023/05/23 04:49:49;;;;;;;;;;;;;;;13.74;100.00;101950.50;5042559;28;20029;-81
2023/05/23 04:52:17;;;;;;;;;;;;;;;13.74;100.00;101943.25;5024804;28;19925;-81
2023/05/23 04:54:43;;;;;;;;;;;;;;;13.76;100.00;101956.66;5022478;28;20330;-83
2023/05/23 04:57:09;;;;;;;;;;;;;;;13.64;100.00;101958.38;5041013;28;20478;-82
2023/05/23 04:59:34;;;;;;;;;;;;;;;13.69;100.00;101958.91;5040278;28;19960;-82
2023/05/23 05:01:59;;;;;;;;;;;;;;;13.65;100.00;101965.50;5028186;28;19928;-81
2023/05/23 05:04:25;;;;;;;;;;;;;;;13.69;100.00;101967.03;5039437;28;19917;-83
2023/05/23 05:06:51;;;;;;;;;;;;;;;13.49;100.00;101963.09;5031777;28;20197;-82
2023/05/23 05:09:16;;;;;;;;;;;;;;;13.58;100.00;101967.81;5030003;28;20023;-82
2023/05/23 05:11:42;;;;;;;;;;;;;;;13.58;100.00;101973.19;5037381;28;20012;-82
2023/05/23 05:14:07;;;;;;;;;;;;;;;13.50;100.00;101981.00;5030883;28;19960;-82
2023/05/23 05:16:32;;;;;;;;;;;;;;;13.55;100.00;101981.50;5032360;28;19985;-82
2023/05/23 05:18:57;;;;;;;;;;;;;;;13.45;100.00;101978.63;5036475;28;20007;-82
2023/05/23 05:21:23;;;;;;;;;;;;;;;13.46;100.00;101984.91;5023537;28;20465;-82
2023/05/23 05:23:48;;;;;;;;;;;;;;;13.38;100.00;101987.25;5026035;28;20350;-82
2023/05/23 05:26:13;;;;;;;;;;;;;;;13.40;100.00;101982.59;5022019;28;20358;-82
2023/05/23 05:28:38;;;;;;;;;;;;;;;13.44;100.00;101986.84;5028243;28;20920;-82
2023/05/23 05:31:04;;;;;;;;;;;;;;;13.42;100.00;101986.09;5013285;28;20267;-82
2023/05/23 05:33:34;;;;;;;;;;;;;;;13.43;100.00;101994.06;5011870;28;20398;-82
2023/05/23 05:36:00;;;;;;;;;;;;;;;13.39;100.00;101989.81;5031479;28;19925;-82
2023/05/23 05:38:25;;;;;;;;;;;;;;;13.31;100.00;101990.38;5044728;28;20266;-82
2023/05/23 05:40:50;;;;;;;;;;;;;;;13.26;100.00;102000.63;5029312;28;20374;-82
2023/05/23 05:43:16;;;;;;;;;;;;;;;13.22;100.00;102003.66;5025261;28;20059;-82
2023/05/23 05:45:41;;;;;;;;;;;;;;;13.12;100.00;102012.38;5033354;28;20018;-82
2023/05/23 05:48:07;;;;;;;;;;;;;;;13.09;100.00;102018.00;5005353;28;20351;-82
2023/05/23 05:50:32;;;;;;;;;;;;;;;13.11;100.00;102021.44;5013019;28;20621;-82
2023/05/23 05:52:57;;;;;;;;;;;;;;;13.06;100.00;102026.31;5027163;28;20046;-81
2023/05/23 05:55:22;;;;;;;;;;;;;;;13.02;100.00;102022.09;5036361;28;19962;-82
2023/05/23 05:57:48;;;;;;;;;;;;;;;13.08;100.00;102029.75;5025670;28;20439;-82
2023/05/23 06:00:17;;;;;;;;;;;;;;;13.07;100.00;102028.03;5038937;28;19924;-82
2023/05/23 06:02:43;;;;;;;;;;;;;;;13.04;100.00;102034.47;5026510;28;20082;-82
2023/05/23 06:05:11;;;;;;;;;;;;;;;12.98;100.00;102034.91;5031992;28;20434;-81
2023/05/23 06:07:37;;;;;;;;;;;;;;;12.97;100.00;102038.59;5038863;28;19925;-81
2023/05/23 06:10:02;;;;;;;;;;;;;;;12.92;100.00;102047.94;5041370;28;19935;-82
2023/05/23 06:12:27;;;;;;;;;;;;;;;12.92;100.00;102034.47;5040691;28;19924;-81
2023/05/23 06:14:53;;;;;;;;;;;;;;;12.86;100.00;102039.31;5039364;28;20024;-82
2023/05/23 06:17:18;;;;;;;;;;;;;;;12.94;100.00;102049.59;5035437;28;19929;-82
2023/05/23 06:19:43;;;;;;;;;;;;;;;12.94;100.00;102054.97;5024379;28;20207;-83
2023/05/23 06:22:08;;;;;;;;;;;;;;;12.94;100.00;102049.59;5037256;28;19924;-81
2023/05/23 06:24:33;;;;;;;;;;;;;;;13.03;100.00;102057.03;5047054;28;19925;-82
2023/05/23 06:26:59;;;;;;;;;;;;;;;13.05;100.00;102052.38;5024068;28;19943;-82
2023/05/23 06:29:25;;;;;;;;;;;;;;;13.03;100.00;102058.88;5028576;28;19932;-82
2023/05/23 06:31:50;;;;;;;;;;;;;;;13.06;100.00;102064.06;5026632;28;20030;-82
2023/05/23 06:34:15;;;;;;;;;;;;;;;13.04;100.00;102058.75;5030465;28;20321;-82
2023/05/23 06:36:41;;;;;;;;;;;;;;;12.98;100.00;102069.94;5030228;28;19924;-82
2023/05/23 06:39:08;;;;;;;;;;;;;;;12.94;100.00;102064.88;5036310;28;20424;-82
2023/05/23 06:41:34;;;;;;;;;;;;;;;12.92;100.00;102069.50;5023320;28;19925;-82
2023/05/23 06:43:59;;;;;;;;;;;;;;;12.86;100.00;102065.41;5027426;28;19925;-82
2023/05/23 06:46:24;;;;;;;;;;;;;;;12.93;100.00;102072.13;5044738;28;19951;-82
2023/05/23 06:48:49;;;;;;;;;;;;;;;12.98;100.00;102085.28;5038445;28;19913;-82
2023/05/23 06:51:14;;;;;;;;;;;;;;;12.90;100.00;102075.03;5028156;28;20536;-82
2023/05/23 06:53:40;;;;;;;;;;;;;;;12.82;100.00;102064.78;5036921;28;20381;-82
2023/05/23 06:56:05;;;;;;;;;;;;;;;12.95;100.00;102072.88;5028236;28;20398;-81
2023/05/23 06:58:30;;;;;;;;;;;;;;;13.03;100.00;102072.34;5042265;28;20436;-82
2023/05/23 07:00:55;;;;;;;;;;;;;;;13.09;100.00;102080.03;5036223;28;19917;-82
2023/05/23 07:03:21;;;;;;;;;;;;;;;13.09;100.00;102076.44;5027095;28;20276;-82
2023/05/23 07:05:46;;;;;;;;;;;;;;;13.17;100.00;102087.56;5040444;28;20712;-82
2023/05/23 07:08:11;;;;;;;;;;;;;;;13.19;100.00;102086.50;5039250;28;20374;-81
2023/05/23 07:10:40;;;;;;;;;;;;;;;13.25;100.00;102085.19;5035754;28;19921;-82
2023/05/23 07:13:05;;;;;;;;;;;;;;;13.33;100.00;102084.69;5025593;28;20720;-83
2023/05/23 07:15:30;;;;;;;;;;;;;;;13.39;100.00;102095.03;5047380;28;19921;-81
2023/05/23 07:17:55;;;;;;;;;;;;;;;13.70;100.00;102100.13;5039647;28;20283;-83
2023/05/23 07:20:21;;;;;;;;;;;;;;;14.03;100.00;102094.13;5039971;28;20275;-83
2023/05/23 07:22:46;;;;;;;;;;;;;;;14.13;100.00;102091.63;5038985;28;19917;-83
2023/05/23 07:25:11;;;;;;;;;;;;;;;14.24;100.00;102090.84;5028671;28;19982;-82
2023/05/23 07:27:36;;;;;;;;;;;;;;;14.33;100.00;102097.41;5057660;28;19920;-84
2023/05/23 07:30:02;;;;;;;;;;;;;;;14.38;100.00;102100.63;5039801;28;19982;-85
2023/05/23 07:32:27;;;;;;;;;;;;;;;14.48;100.00;102098.97;5023562;28;19972;-83
2023/05/23 07:34:52;;;;;;;;;;;;;;;14.72;100.00;102099.97;5042615;28;19920;-83
2023/05/23 07:37:17;;;;;;;;;;;;;;;14.91;100.00;102103.00;5026442;28;20674;-82
2023/05/23 07:39:44;;;;;;;;;;;;;;;14.81;100.00;102102.84;5029407;28;20379;-83
2023/05/23 07:42:09;;;;;;;;;;;;;;;14.71;100.00;102107.22;5042210;28;20024;-83
2023/05/23 07:44:34;;;;;;;;;;;;;;;14.83;100.00;102100.03;5027513;28;19936;-83
2023/05/23 07:47:00;;;;;;;;;;;;;;;14.85;100.00;102101.63;5039103;28;20698;-83
2023/05/23 07:49:25;;;;;;;;;;;;;;;14.81;100.00;102105.56;5023442;28;19975;-84
2023/05/23 07:51:51;;;;;;;;;;;;;;;14.76;100.00;102120.38;5027446;28;19921;-84
2023/05/23 07:54:16;;;;;;;;;;;;;;;14.78;100.00;102113.91;5023070;28;19928;-83
2023/05/23 07:56:42;;;;;;;;;;;;;;;14.88;100.00;102122.19;5043547;28;19929;-83
2023/05/23 07:59:07;;;;;;;;;;;;;;;14.68;100.00;102123.63;5031079;28;19921;-83
2023/05/23 08:01:32;;;;;;;;;;;;;;;14.76;100.00;102125.78;5041773;28;20370;-82
2023/05/23 08:03:58;;;;;;;;;;;;;;;14.81;100.00;102121.78;5027600;28;20263;-83
2023/05/23 08:06:23;;;;;;;;;;;;;;;14.65;100.00;102123.88;5027100;28;20294;-84
2023/05/23 08:08:48;;;;;;;;;;;;;;;14.79;100.00;102130.97;5027103;28;19920;-83
2023/05/23 08:11:14;;;;;;;;;;;;;;;15.00;100.00;102128.50;5055471;28;20001;-83
2023/05/23 08:13:39;;;;;;;;;;;;;;;15.10;100.00;102132.19;5023522;28;19927;-82
2023/05/23 08:16:05;;;;;;;;;;;;;;;15.13;100.00;102131.97;5023064;28;20007;-84
2023/05/23 08:18:30;;;;;;;;;;;;;;;15.16;100.00;102139.00;5028137;28;20561;-82
2023/05/23 08:20:55;;;;;;;;;;;;;;;15.29;100.00;102141.63;5038232;28;20256;-83
2023/05/23 08:23:20;;;;;;;;;;;;;;;14.97;100.00;102131.41;5012913;28;20283;-82
2023/05/23 08:25:45;;;;;;;;;;;;;;;15.06;100.00;102140.66;5020120;28;20704;-82
2023/05/23 08:28:11;;;;;;;;;;;;;;;15.13;100.00;102140.06;5020128;28;20446;-83
2023/05/23 08:30:36;;;;;;;;;;;;;;;15.24;100.00;102147.38;5021488;28;19930;-82
2023/05/23 08:33:03;;;;;;;;;;;;;;;15.20;100.00;102150.44;5023247;28;19921;-82
2023/05/23 08:35:32;;;;;;;;;;;;;;;15.00;100.00;102147.41;5022875;28;20375;-83
2023/05/23 08:37:58;;;;;;;;;;;;;;;14.90;100.00;102151.78;5023390;28;19921;-84
2023/05/23 08:40:23;;;;;;;;;;;;;;;14.90;100.00;102151.78;5021972;28;19951;-82
2023/05/23 08:42:49;;;;;;;;;;;;;;;14.85;100.00;102157.56;5026069;28;20008;-82
2023/05/23 08:45:15;;;;;;;;;;;;;;;14.98;100.00;102157.50;5019118;28;19921;-83
2023/05/23 08:47:41;;;;;;;;;;;;;;;15.17;100.00;102153.38;5027305;28;20015;-82
2023/05/23 08:50:07;;;;;;;;;;;;;;;15.21;100.00;102160.28;5036775;28;19920;-82
2023/05/23 08:52:32;;;;;;;;;;;;;;;15.35;100.00;102167.34;5024259;28;20416;-83
2023/05/23 08:54:58;;;;;;;;;;;;;;;15.43;100.00;102164.91;5021812;28;19921;-83
2023/05/23 08:57:23;;;;;;;;;;;;;;;15.42;100.00;102168.59;5023162;28;20445;-82
2023/05/23 08:59:48;;;;;;;;;;;;;;;15.73;100.00;102171.59;5024279;28;19928;-82
2023/05/23 09:02:14;;;;;;;;;;;;;;;15.79;100.00;102167.53;5019693;28;22534;-82
2023/05/23 09:04:39;;;;;;;;;;;;;;;16.11;100.00;102175.00;5027076;28;20356;-82
2023/05/23 09:07:05;;;;;;;;;;;;;;;16.37;100.00;102178.28;5033393;28;20382;-81
2023/05/23 09:09:30;;;;;;;;;;;;;;;16.41;100.00;102174.34;5025968;28;19912;-82
2023/05/23 09:11:55;;;;;;;;;;;;;;;16.05;100.00;102179.03;5021155;28;19927;-82
2023/05/23 09:14:21;;;;;;;;;;;;;;;16.10;100.00;102182.22;5022951;28;19928;-82
2023/05/23 09:16:49;;;;;;;;;;;;;;;16.08;100.00;102181.50;5040793;28;20404;-82
2023/05/23 09:19:14;;;;;;;;;;;;;;;16.00;98.42;102181.28;5023935;28;19917;-82
2023/05/23 09:21:46;;;;;;;;;;;;;;;16.00;96.88;102184.81;5036955;28;19920;-82
2023/05/23 09:24:11;;;;;;;;;;;;;;;15.96;97.53;102190.63;5041560;28;19921;-81
2023/05/23 09:26:36;;;;;;;;;;;;;;;15.92;96.34;102181.00;5051502;28;19927;-82
2023/05/23 09:29:04;;;;;;;;;;;;;;;15.92;92.66;102184.56;5024711;28;20387;-82
2023/05/23 09:31:29;;;;;;;;;;;;;;;15.94;92.59;102187.16;5013490;28;20386;-82
2023/05/23 09:33:55;;;;;;;;;;;;;;;16.20;97.95;102182.34;5056302;28;19924;-82
2023/05/23 09:36:20;;;;;;;;;;;;;;;16.53;94.03;102182.47;5048787;28;20007;-82
2023/05/23 09:38:46;;;;;;;;;;;;;;;16.70;100.00;102181.03;5043807;28;20317;-82
2023/05/23 09:41:12;;;;;;;;;;;;;;;17.01;91.13;102175.81;5024534;28;20384;-83
2023/05/23 09:43:57;;;;;;;;;;;;;;;17.19;93.04;102184.25;5017690;28;19920;-82
2023/05/23 09:46:26;;;;;;;;;;;;;;;16.99;90.57;102188.63;5036940;28;19952;-82
2023/05/23 09:48:52;;;;;;;;;;;;;;;17.08;86.46;102190.59;5039392;28;19920;-83
2023/05/23 09:51:19;;;;;;;;;;;;;;;17.03;87.65;102185.56;5023081;28;21527;-83
2023/05/23 09:53:44;;;;;;;;;;;;;;;16.94;85.04;102187.16;5022996;28;20035;-83
2023/05/23 09:56:10;;;;;;;;;;;;;;;16.61;86.20;102185.38;5038521;28;20113;-83
2023/05/23 09:58:36;;;;;;;;;;;;;;;16.69;86.18;102188.34;5020970;28;19943;-82
2023/05/23 10:01:02;;;;;;;;;;;;;;;16.72;79.86;102192.63;5054878;28;20023;-82
2023/05/23 10:03:30;;;;;;;;;;;;;;;16.89;80.76;102196.66;5020409;28;20031;-82
2023/05/23 10:05:56;;;;;;;;;;;;;;;16.89;85.32;102202.97;5024384;28;20019;-81
2023/05/23 10:08:22;;;;;;;;;;;;;;;17.12;81.13;102191.19;5024546;28;19940;-83
2023/05/23 10:10:53;;;;;;;;;;;;;;;17.13;84.20;102190.19;5045170;28;19921;-83
2023/05/23 10:13:18;;;;;;;;;;;;;;;17.09;83.05;102203.16;5040346;28;19971;-82
2023/05/23 10:15:44;;;;;;;;;;;;;;;17.21;84.54;102193.13;5022436;28;20268;-81
2023/05/23 10:18:20;;;;;;;;;;;;;;;17.51;80.64;102200.47;5033581;28;19925;-83
2023/05/23 10:20:47;;;;;;;;;;;;;;;17.82;75.42;102199.69;5013325;28;20024;-82
2023/05/23 10:23:12;;;;;;;;;;;;;;;17.78;83.03;102200.94;5041953;28;19959;-84
2023/05/23 10:25:37;;;;;;;;;;;;;;;17.55;76.64;102206.53;5026741;28;19960;-82
2023/05/23 10:28:02;;;;;;;;;;;;;;;18.04;81.95;102206.84;5028189;28;20043;-82
2023/05/23 10:30:28;;;;;;;;;;;;;;;18.12;74.60;102200.75;5025649;28;19943;-82
2023/05/23 10:32:54;;;;;;;;;;;;;;;18.54;71.61;102199.75;5023473;28;20035;-85
2023/05/23 10:35:29;;;;;;;;;;;;;;;18.94;69.45;102197.94;5043828;28;19968;-81
2023/05/23 10:38:08;;;;;;;;;;;;;;;19.27;64.20;102199.41;5042677;28;20361;-83
2023/05/23 10:40:33;;;;;;;;;;;;;;;19.63;65.32;102199.66;5035402;28;19927;-83
2023/05/23 10:43:04;;;;;;;;;;;;;;;19.99;64.26;102196.31;5036438;28;19921;-84
2023/05/23 10:45:30;;;;;;;;;;;;;;;20.05;62.84;102203.88;5044479;28;19921;-84
2023/05/23 10:47:55;;;;;;;;;;;;;;;20.42;59.87;102199.41;5026441;28;20386;-83
2023/05/23 10:50:31;;;;;;;;;;;;;;;20.85;63.29;102201.63;5043190;28;19913;-84
2023/05/23 10:52:57;;;;;;;;;;;;;;;21.01;64.58;102190.00;5033719;28;19943;-83
2023/05/23 10:55:22;;;;;;;;;;;;;;;21.21;59.78;102197.03;5042336;28;19921;-83
2023/05/23 10:57:48;;;;;;;;;;;;;;;21.71;62.24;102203.78;5025927;28;19966;-83
2023/05/23 11:00:14;;;;;;;;;;;;;;;21.50;56.72;102189.56;5025527;28;19989;-83
2023/05/23 11:02:46;;;;;;;;;;;;;;;22.01;54.64;102196.06;5025216;28;19920;-81
2023/05/23 11:05:20;;;;;;;;;;;;;;;21.76;55.28;102195.09;5041059;28;19968;-81
2023/05/23 11:07:45;;;;;;;;;;;;;;;22.00;55.54;102191.63;5023143;28;19927;-83
2023/05/23 11:10:11;;;;;;;;;;;;;;;22.10;56.04;102199.72;5044555;28;20434;-84
2023/05/23 11:12:37;;;;;;;;;;;;;;;21.61;51.14;102188.44;5029210;28;20373;-83
2023/05/23 11:15:24;;;;;;;;;;;;;;;21.85;52.66;102194.09;5029859;28;20314;-84
2023/05/23 11:17:50;;;;;;;;;;;;;;;21.31;51.80;102191.47;5041306;28;19932;-82
2023/05/23 11:20:17;;;;;;;;;;;;;;;21.68;50.75;102195.03;5022804;28;19928;-84
2023/05/23 11:22:47;;;;;;;;;;;;;;;21.87;52.18;102199.41;5025184;28;19917;-82
2023/05/23 11:25:12;;;;;;;;;;;;;;;21.43;51.83;102192.06;5025992;28;19956;-82
2023/05/23 11:27:38;;;;;;;;;;;;;;;22.15;52.12;102194.59;5020280;28;20025;-83
2023/05/23 11:30:05;;;;;;;;;;;;;;;22.51;51.01;102190.00;5023816;28;19952;-83
2023/05/23 11:32:31;;;;;;;;;;;;;;;21.77;47.91;102193.19;5026589;28;19928;-82
2023/05/23 11:35:00;;;;;;;;;;;;;;;22.48;48.04;102199.41;5028324;28;19921;-84
2023/05/23 11:37:25;;;;;;;;;;;;;;;22.53;50.54;102197.00;5041471;28;19935;-84
2023/05/23 11:39:50;;;;;;;;;;;;;;;22.71;49.81;102198.78;5027458;28;19916;-84
2023/05/23 11:42:15;;;;;;;;;;;;;;;23.38;49.06;102191.53;5024496;28;19960;-84
2023/05/23 11:44:41;;;;;;;;;;;;;;;23.94;46.99;102199.81;5027937;28;19921;-86
2023/05/23 11:47:07;;;;;;;;;;;;;;;23.99;47.44;102204.81;5025433;28;19967;-84
2023/05/23 11:49:36;;;;;;;;;;;;;;;24.32;45.27;102205.56;5037130;28;20377;-83
2023/05/23 11:52:02;;;;;;;;;;;;;;;24.05;43.59;102198.63;5044065;28;20016;-83
2023/05/23 11:54:27;;;;;;;;;;;;;;;24.67;44.32;102200.56;5020146;28;20023;-84
2023/05/23 11:56:56;;;;;;;;;;;;;;;24.98;45.63;102207.09;5025866;28;20531;-83
2023/05/23 11:59:22;;;;;;;;;;;;;;;23.97;43.18;102210.44;5042060;28;19923;-84
2023/05/23 12:01:48;;;;;;;;;;;;;;;24.13;44.81;102198.59;5027277;28;19924;-84
2023/05/23 12:04:13;;;;;;;;;;;;;;;24.80;45.93;102196.41;5025190;28;21779;-85
2023/05/23 12:06:39;;;;;;;;;;;;;;;24.79;43.89;102197.44;5019740;28;19947;-85
2023/05/23 12:09:05;;;;;;;;;;;;;;;24.93;44.90;102201.31;5041706;28;20402;-82
2023/05/23 12:11:31;;;;;;;;;;;;;;;24.97;42.49;102206.25;5039882;28;19921;-83
2023/05/23 12:13:56;;;;;;;;;;;;;;;24.76;41.69;102200.56;5040620;28;19928;-85
2023/05/23 12:16:21;;;;;;;;;;;;;;;23.74;45.76;102202.09;5042757;28;20043;-82
2023/05/23 12:18:46;;;;;;;;;;;;;;;22.75;46.18;102220.16;5044416;28;20347;-82
2023/05/23 12:21:12;;;;;;;;;;;;;;;22.10;45.71;102218.88;5043776;28;20717;-83